sensor_id;sensor_type;location;lat;lon;timestamp;P1;durP1;ratioP1;P2;durP2;ratioP2
12970;SDS011;6550;48.650;8.774;2023-04-03T00:01:03;1.50;;;1.37;;
12970;SDS011;6550;48.650;8.774;2023-04-03T00:03:30;2.30;;;1.40;;
12970;SDS011;6550;48.650;8.774;2023-04-03T00:05:58;1.57;;;1.47;;
12970;SDS011;6550;48.650;8.774;2023-04-03T00:08:25;1.80;;;1.67;;
12970;SDS011;6550;48.650;8.774;2023-04-03T00:10:52;2.53;;;1.60;;
12970;SDS011;6550;48.650;8.774;2023-04-03T00:13:21;2.00;;;1.37;;
12970;SDS011;6550;48.650;8.774;2023-04-03T00:15:51;2.03;;;1.60;;
12970;SDS011;6550;48.650;8.774;2023-04-03T00:18:18;6.60;;;1.60;;
12970;SDS011;6550;48.650;8.774;2023-04-03T00:20:45;1.47;;;1.37;;
12970;SDS011;6550;48.650;8.774;2023-04-03T00:23:16;1.60;;;1.50;;
12970;SDS011;6550;48.650;8.774;2023-04-03T00:25:43;1.93;;;1.33;;
12970;SDS011;6550;48.650;8.774;2023-04-03T00:28:10;2.10;;;1.60;;
12970;SDS011;6550;48.650;8.774;2023-04-03T00:30:37;1.63;;;1.40;;
12970;SDS011;6550;48.650;8.774;2023-04-03T00:33:04;2.50;;;1.50;;
12970;SDS011;6550;48.650;8.774;2023-04-03T00:35:31;3.20;;;1.30;;
12970;SDS011;6550;48.650;8.774;2023-04-03T00:38:00;2.00;;;1.80;;
12970;SDS011;6550;48.650;8.774;2023-04-03T00:40:32;5.20;;;1.80;;
12970;SDS011;6550;48.650;8.774;2023-04-03T00:43:01;1.77;;;1.67;;
12970;SDS011;6550;48.650;8.774;2023-04-03T00:45:35;1.50;;;1.40;;
12970;SDS011;6550;48.650;8.774;2023-04-03T00:48:04;1.90;;;1.70;;
12970;SDS011;6550;48.650;8.774;2023-04-03T00:50:39;1.63;;;1.53;;
12970;SDS011;6550;48.650;8.774;2023-04-03T00:53:12;2.03;;;1.40;;
12970;SDS011;6550;48.650;8.774;2023-04-03T00:55:44;3.60;;;1.90;;
12970;SDS011;6550;48.650;8.774;2023-04-03T00:58:15;1.67;;;1.43;;
12970;SDS011;6550;48.650;8.774;2023-04-03T01:00:46;2.67;;;1.60;;
12970;SDS011;6550;48.650;8.774;2023-04-03T01:03:24;2.80;;;1.90;;
12970;SDS011;6550;48.650;8.774;2023-04-03T01:05:53;2.00;;;1.70;;
12970;SDS011;6550;48.650;8.774;2023-04-03T01:08:20;1.77;;;1.50;;
12970;SDS011;6550;48.650;8.774;2023-04-03T01:10:47;2.20;;;1.87;;
12970;SDS011;6550;48.650;8.774;2023-04-03T01:13:30;1.53;;;1.43;;
12970;SDS011;6550;48.650;8.774;2023-04-03T01:16:02;2.17;;;1.50;;
12970;SDS011;6550;48.650;8.774;2023-04-03T01:18:31;2.00;;;1.80;;
12970;SDS011;6550;48.650;8.774;2023-04-03T01:26:26;2.17;;;1.97;;
12970;SDS011;6550;48.650;8.774;2023-04-03T01:28:54;2.87;;;1.70;;
12970;SDS011;6550;48.650;8.774;2023-04-03T01:31:25;2.03;;;1.80;;
12970;SDS011;6550;48.650;8.774;2023-04-03T01:33:59;2.07;;;1.73;;
12970;SDS011;6550;48.650;8.774;2023-04-03T01:36:27;2.20;;;1.53;;
12970;SDS011;6550;48.650;8.774;2023-04-03T01:38:59;1.90;;;1.80;;
12970;SDS011;6550;48.650;8.774;2023-04-03T01:41:28;1.90;;;1.57;;
12970;SDS011;6550;48.650;8.774;2023-04-03T01:43:58;1.77;;;1.67;;
12970;SDS011;6550;48.650;8.774;2023-04-03T01:46:27;2.53;;;1.60;;
12970;SDS011;6550;48.650;8.774;2023-04-03T01:48:53;1.90;;;1.57;;
12970;SDS011;6550;48.650;8.774;2023-04-03T01:51:20;3.67;;;1.60;;
12970;SDS011;6550;48.650;8.774;2023-04-03T01:53:49;1.90;;;1.80;;
12970;SDS011;6550;48.650;8.774;2023-04-03T01:56:18;1.97;;;1.80;;
12970;SDS011;6550;48.650;8.774;2023-04-03T01:58:46;2.22;;;1.67;;
12970;SDS011;6550;48.650;8.774;2023-04-03T02:01:12;1.67;;;1.50;;
12970;SDS011;6550;48.650;8.774;2023-04-03T02:03:39;2.07;;;1.90;;
12970;SDS011;6550;48.650;8.774;2023-04-03T02:06:08;1.97;;;1.77;;
12970;SDS011;6550;48.650;8.774;2023-04-03T02:08:37;1.73;;;1.60;;
12970;SDS011;6550;48.650;8.774;2023-04-03T02:11:07;1.73;;;1.60;;
12970;SDS011;6550;48.650;8.774;2023-04-03T02:13:34;2.10;;;1.87;;
12970;SDS011;6550;48.650;8.774;2023-04-03T02:16:08;3.38;;;2.05;;
12970;SDS011;6550;48.650;8.774;2023-04-03T02:18:36;2.27;;;1.90;;
12970;SDS011;6550;48.650;8.774;2023-04-03T02:21:03;1.67;;;1.50;;
12970;SDS011;6550;48.650;8.774;2023-04-03T02:23:30;2.63;;;1.90;;
12970;SDS011;6550;48.650;8.774;2023-04-03T02:26:10;2.00;;;1.73;;
12970;SDS011;6550;48.650;8.774;2023-04-03T02:28:38;1.90;;;1.70;;
12970;SDS011;6550;48.650;8.774;2023-04-03T02:31:05;2.30;;;1.83;;
12970;SDS011;6550;48.650;8.774;2023-04-03T02:33:33;3.00;;;2.17;;
12970;SDS011;6550;48.650;8.774;2023-04-03T02:36:05;2.00;;;1.70;;
12970;SDS011;6550;48.650;8.774;2023-04-03T02:38:32;2.17;;;1.97;;
12970;SDS011;6550;48.650;8.774;2023-04-03T02:41:02;1.70;;;1.60;;
12970;SDS011;6550;48.650;8.774;2023-04-03T02:43:34;2.00;;;1.80;;
12970;SDS011;6550;48.650;8.774;2023-04-03T02:46:04;2.60;;;1.73;;
12970;SDS011;6550;48.650;8.774;2023-04-03T02:48:31;2.10;;;1.90;;
12970;SDS011;6550;48.650;8.774;2023-04-03T02:50:58;1.87;;;1.77;;
12970;SDS011;6550;48.650;8.774;2023-04-03T02:53:29;2.03;;;1.83;;
12970;SDS011;6550;48.650;8.774;2023-04-03T02:55:58;2.20;;;2.00;;
12970;SDS011;6550;48.650;8.774;2023-04-03T02:58:25;2.10;;;1.73;;
12970;SDS011;6550;48.650;8.774;2023-04-03T03:00:54;2.10;;;1.90;;
12970;SDS011;6550;48.650;8.774;2023-04-03T03:03:23;2.00;;;1.80;;
12970;SDS011;6550;48.650;8.774;2023-04-03T03:05:50;2.30;;;2.10;;
12970;SDS011;6550;48.650;8.774;2023-04-03T03:08:27;1.97;;;1.63;;
12970;SDS011;6550;48.650;8.774;2023-04-03T03:10:56;1.67;;;1.57;;
12970;SDS011;6550;48.650;8.774;2023-04-03T03:13:25;2.53;;;2.00;;
12970;SDS011;6550;48.650;8.774;2023-04-03T03:15:52;2.17;;;1.83;;
12970;SDS011;6550;48.650;8.774;2023-04-03T03:18:19;1.93;;;1.80;;
12970;SDS011;6550;48.650;8.774;2023-04-03T03:20:55;1.97;;;1.70;;
12970;SDS011;6550;48.650;8.774;2023-04-03T03:23:24;3.77;;;1.87;;
12970;SDS011;6550;48.650;8.774;2023-04-03T03:25:59;2.00;;;1.90;;
12970;SDS011;6550;48.650;8.774;2023-04-03T03:28:31;1.90;;;1.77;;
12970;SDS011;6550;48.650;8.774;2023-04-03T03:31:00;2.20;;;2.00;;
12970;SDS011;6550;48.650;8.774;2023-04-03T03:33:27;3.50;;;1.80;;
12970;SDS011;6550;48.650;8.774;2023-04-03T03:35:56;2.27;;;2.07;;
12970;SDS011;6550;48.650;8.774;2023-04-03T03:38:26;2.50;;;1.80;;
12970;SDS011;6550;48.650;8.774;2023-04-03T03:40:57;2.30;;;1.90;;
12970;SDS011;6550;48.650;8.774;2023-04-03T03:43:24;1.90;;;1.80;;
12970;SDS011;6550;48.650;8.774;2023-04-03T03:45:51;1.93;;;1.73;;
12970;SDS011;6550;48.650;8.774;2023-04-03T03:48:23;2.20;;;1.90;;
12970;SDS011;6550;48.650;8.774;2023-04-03T03:50:50;2.00;;;1.80;;
12970;SDS011;6550;48.650;8.774;2023-04-03T03:53:17;1.80;;;1.70;;
12970;SDS011;6550;48.650;8.774;2023-04-03T03:55:44;2.23;;;1.93;;
12970;SDS011;6550;48.650;8.774;2023-04-03T03:58:14;1.63;;;1.47;;
12970;SDS011;6550;48.650;8.774;2023-04-03T04:00:43;2.40;;;2.00;;
12970;SDS011;6550;48.650;8.774;2023-04-03T04:03:12;2.10;;;1.80;;
12970;SDS011;6550;48.650;8.774;2023-04-03T04:05:39;1.73;;;1.63;;
12970;SDS011;6550;48.650;8.774;2023-04-03T04:08:10;2.45;;;1.90;;
12970;SDS011;6550;48.650;8.774;2023-04-03T04:10:37;1.60;;;1.50;;
12970;SDS011;6550;48.650;8.774;2023-04-03T04:13:04;1.70;;;1.60;;
12970;SDS011;6550;48.650;8.774;2023-04-03T04:15:31;2.10;;;1.80;;
12970;SDS011;6550;48.650;8.774;2023-04-03T04:18:01;2.57;;;1.70;;
12970;SDS011;6550;48.650;8.774;2023-04-03T04:20:28;2.50;;;1.67;;
12970;SDS011;6550;48.650;8.774;2023-04-03T04:22:57;3.20;;;2.00;;
12970;SDS011;6550;48.650;8.774;2023-04-03T04:25:26;3.07;;;2.07;;
12970;SDS011;6550;48.650;8.774;2023-04-03T04:27:58;2.38;;;1.92;;
12970;SDS011;6550;48.650;8.774;2023-04-03T04:30:27;3.00;;;1.57;;
12970;SDS011;6550;48.650;8.774;2023-04-03T04:32:53;2.47;;;1.83;;
12970;SDS011;6550;48.650;8.774;2023-04-03T04:35:20;2.03;;;1.70;;
12970;SDS011;6550;48.650;8.774;2023-04-03T04:37:47;1.67;;;1.57;;
12970;SDS011;6550;48.650;8.774;2023-04-03T04:40:19;2.00;;;1.70;;
12970;SDS011;6550;48.650;8.774;2023-04-03T04:42:46;1.80;;;1.70;;
12970;SDS011;6550;48.650;8.774;2023-04-03T04:45:12;1.93;;;1.83;;
12970;SDS011;6550;48.650;8.774;2023-04-03T04:47:41;2.27;;;1.90;;
12970;SDS011;6550;48.650;8.774;2023-04-03T04:50:08;1.90;;;1.80;;
12970;SDS011;6550;48.650;8.774;2023-04-03T04:52:35;2.10;;;1.90;;
12970;SDS011;6550;48.650;8.774;2023-04-03T04:55:02;2.20;;;1.90;;
12970;SDS011;6550;48.650;8.774;2023-04-03T04:57:29;2.80;;;1.83;;
12970;SDS011;6550;48.650;8.774;2023-04-03T04:59:59;2.33;;;1.87;;
12970;SDS011;6550;48.650;8.774;2023-04-03T05:02:31;4.20;;;2.03;;
12970;SDS011;6550;48.650;8.774;2023-04-03T05:04:58;1.53;;;1.43;;
12970;SDS011;6550;48.650;8.774;2023-04-03T05:07:25;3.30;;;2.05;;
12970;SDS011;6550;48.650;8.774;2023-04-03T05:09:51;1.90;;;1.70;;
12970;SDS011;6550;48.650;8.774;2023-04-03T05:12:21;2.20;;;1.70;;
12970;SDS011;6550;48.650;8.774;2023-04-03T05:14:48;1.93;;;1.73;;
12970;SDS011;6550;48.650;8.774;2023-04-03T05:17:19;1.80;;;1.70;;
12970;SDS011;6550;48.650;8.774;2023-04-03T05:19:48;2.03;;;1.83;;
12970;SDS011;6550;48.650;8.774;2023-04-03T05:22:15;2.00;;;1.70;;
12970;SDS011;6550;48.650;8.774;2023-04-03T05:24:44;2.20;;;2.00;;
12970;SDS011;6550;48.650;8.774;2023-04-03T05:27:13;2.50;;;1.60;;
12970;SDS011;6550;48.650;8.774;2023-04-03T05:29:42;1.80;;;1.70;;
12970;SDS011;6550;48.650;8.774;2023-04-03T05:32:10;2.20;;;1.87;;
12970;SDS011;6550;48.650;8.774;2023-04-03T05:34:37;1.90;;;1.80;;
12970;SDS011;6550;48.650;8.774;2023-04-03T05:37:06;2.20;;;2.00;;
12970;SDS011;6550;48.650;8.774;2023-04-03T05:39:35;2.20;;;2.00;;
12970;SDS011;6550;48.650;8.774;2023-04-03T05:42:07;2.10;;;1.90;;
12970;SDS011;6550;48.650;8.774;2023-04-03T05:44:37;1.90;;;1.80;;
12970;SDS011;6550;48.650;8.774;2023-04-03T05:47:04;2.23;;;1.90;;
12970;SDS011;6550;48.650;8.774;2023-04-03T05:49:31;2.30;;;1.80;;
12970;SDS011;6550;48.650;8.774;2023-04-03T05:52:03;2.20;;;2.00;;
12970;SDS011;6550;48.650;8.774;2023-04-03T05:54:29;3.43;;;1.90;;
12970;SDS011;6550;48.650;8.774;2023-04-03T05:56:56;2.20;;;2.00;;
12970;SDS011;6550;48.650;8.774;2023-04-03T05:59:28;2.43;;;1.70;;
12970;SDS011;6550;48.650;8.774;2023-04-03T06:01:55;1.87;;;1.77;;
12970;SDS011;6550;48.650;8.774;2023-04-03T06:04:24;2.03;;;1.83;;
12970;SDS011;6550;48.650;8.774;2023-04-03T06:06:56;2.20;;;2.00;;
12970;SDS011;6550;48.650;8.774;2023-04-03T06:09:26;1.60;;;1.50;;
12970;SDS011;6550;48.650;8.774;2023-04-03T06:11:55;2.43;;;1.80;;
12970;SDS011;6550;48.650;8.774;2023-04-03T06:14:25;2.17;;;1.80;;
12970;SDS011;6550;48.650;8.774;2023-04-03T06:16:52;2.20;;;2.00;;
12970;SDS011;6550;48.650;8.774;2023-04-03T06:19:21;2.83;;;2.07;;
12970;SDS011;6550;48.650;8.774;2023-04-03T06:21:51;4.75;;;1.92;;
12970;SDS011;6550;48.650;8.774;2023-04-03T06:24:20;2.00;;;1.73;;
12970;SDS011;6550;48.650;8.774;2023-04-03T06:26:50;3.27;;;1.90;;
12970;SDS011;6550;48.650;8.774;2023-04-03T06:29:17;1.97;;;1.77;;
12970;SDS011;6550;48.650;8.774;2023-04-03T06:31:50;2.83;;;2.00;;
12970;SDS011;6550;48.650;8.774;2023-04-03T06:34:19;2.23;;;1.70;;
12970;SDS011;6550;48.650;8.774;2023-04-03T06:36:46;2.13;;;1.93;;
12970;SDS011;6550;48.650;8.774;2023-04-03T06:39:17;1.97;;;1.87;;
12970;SDS011;6550;48.650;8.774;2023-04-03T06:41:49;1.90;;;1.50;;
12970;SDS011;6550;48.650;8.774;2023-04-03T06:44:17;1.57;;;1.47;;
12970;SDS011;6550;48.650;8.774;2023-04-03T06:46:44;2.47;;;1.80;;
12970;SDS011;6550;48.650;8.774;2023-04-03T06:49:12;3.03;;;1.70;;
12970;SDS011;6550;48.650;8.774;2023-04-03T06:51:39;1.60;;;1.50;;
12970;SDS011;6550;48.650;8.774;2023-04-03T06:54:06;2.40;;;1.67;;
12970;SDS011;6550;48.650;8.774;2023-04-03T06:56:34;1.80;;;1.70;;
12970;SDS011;6550;48.650;8.774;2023-04-03T06:59:03;2.00;;;1.70;;
12970;SDS011;6550;48.650;8.774;2023-04-03T07:01:33;2.17;;;1.77;;
12970;SDS011;6550;48.650;8.774;2023-04-03T07:03:59;2.63;;;1.80;;
12970;SDS011;6550;48.650;8.774;2023-04-03T07:06:31;2.00;;;1.80;;
12970;SDS011;6550;48.650;8.774;2023-04-03T07:09:00;1.73;;;1.63;;
12970;SDS011;6550;48.650;8.774;2023-04-03T07:11:27;2.40;;;1.77;;
12970;SDS011;6550;48.650;8.774;2023-04-03T07:13:56;3.27;;;1.83;;
12970;SDS011;6550;48.650;8.774;2023-04-03T07:16:23;2.10;;;1.70;;
12970;SDS011;6550;48.650;8.774;2023-04-03T07:18:50;1.63;;;1.53;;
12970;SDS011;6550;48.650;8.774;2023-04-03T07:21:19;1.70;;;1.60;;
12970;SDS011;6550;48.650;8.774;2023-04-03T07:23:46;2.00;;;1.67;;
12970;SDS011;6550;48.650;8.774;2023-04-03T07:26:14;1.83;;;1.67;;
12970;SDS011;6550;48.650;8.774;2023-04-03T07:28:41;2.00;;;1.50;;
12970;SDS011;6550;48.650;8.774;2023-04-03T07:31:10;2.33;;;1.50;;
12970;SDS011;6550;48.650;8.774;2023-04-03T07:33:40;2.37;;;1.80;;
12970;SDS011;6550;48.650;8.774;2023-04-03T07:36:10;2.67;;;1.83;;
12970;SDS011;6550;48.650;8.774;2023-04-03T07:38:40;3.53;;;1.80;;
12970;SDS011;6550;48.650;8.774;2023-04-03T07:41:06;2.00;;;1.30;;
12970;SDS011;6550;48.650;8.774;2023-04-03T07:43:41;3.20;;;1.80;;
12970;SDS011;6550;48.650;8.774;2023-04-03T07:46:08;2.00;;;1.80;;
12970;SDS011;6550;48.650;8.774;2023-04-03T07:48:35;2.40;;;1.93;;
12970;SDS011;6550;48.650;8.774;2023-04-03T07:51:05;1.90;;;1.80;;
12970;SDS011;6550;48.650;8.774;2023-04-03T07:53:32;2.57;;;1.70;;
12970;SDS011;6550;48.650;8.774;2023-04-03T07:56:00;1.60;;;1.20;;
12970;SDS011;6550;48.650;8.774;2023-04-03T07:58:29;1.73;;;1.30;;
12970;SDS011;6550;48.650;8.774;2023-04-03T08:00:59;2.93;;;1.80;;
12970;SDS011;6550;48.650;8.774;2023-04-03T08:03:26;1.70;;;1.60;;
12970;SDS011;6550;48.650;8.774;2023-04-03T08:05:53;1.57;;;1.47;;
12970;SDS011;6550;48.650;8.774;2023-04-03T08:08:28;1.53;;;1.40;;
12970;SDS011;6550;48.650;8.774;2023-04-03T08:10:57;1.65;;;1.55;;
12970;SDS011;6550;48.650;8.774;2023-04-03T08:13:29;2.57;;;1.50;;
12970;SDS011;6550;48.650;8.774;2023-04-03T08:15:56;1.90;;;1.60;;
12970;SDS011;6550;48.650;8.774;2023-04-03T08:18:26;1.50;;;1.40;;
12970;SDS011;6550;48.650;8.774;2023-04-03T08:20:53;1.33;;;1.23;;
12970;SDS011;6550;48.650;8.774;2023-04-03T08:23:22;1.70;;;1.53;;
12970;SDS011;6550;48.650;8.774;2023-04-03T08:25:50;1.50;;;1.40;;
12970;SDS011;6550;48.650;8.774;2023-04-03T08:28:19;1.83;;;1.60;;
12970;SDS011;6550;48.650;8.774;2023-04-03T08:30:46;1.87;;;1.50;;
12970;SDS011;6550;48.650;8.774;2023-04-03T08:33:13;1.73;;;1.43;;
12970;SDS011;6550;48.650;8.774;2023-04-03T08:35:40;2.23;;;1.53;;
12970;SDS011;6550;48.650;8.774;2023-04-03T08:38:08;2.00;;;1.50;;
12970;SDS011;6550;48.650;8.774;2023-04-03T08:40:36;5.07;;;1.80;;
12970;SDS011;6550;48.650;8.774;2023-04-03T08:43:08;2.27;;;1.53;;
12970;SDS011;6550;48.650;8.774;2023-04-03T08:45:55;2.50;;;1.50;;
12970;SDS011;6550;48.650;8.774;2023-04-03T08:48:35;2.63;;;1.40;;
12970;SDS011;6550;48.650;8.774;2023-04-03T08:51:09;3.23;;;1.30;;
12970;SDS011;6550;48.650;8.774;2023-04-03T08:53:55;3.17;;;1.50;;
12970;SDS011;6550;48.650;8.774;2023-04-03T08:56:25;1.60;;;1.50;;
12970;SDS011;6550;48.650;8.774;2023-04-03T08:58:56;2.40;;;1.23;;
12970;SDS011;6550;48.650;8.774;2023-04-03T09:01:27;2.75;;;1.55;;
12970;SDS011;6550;48.650;8.774;2023-04-03T09:04:00;1.47;;;1.37;;
12970;SDS011;6550;48.650;8.774;2023-04-03T09:06:39;1.97;;;1.47;;
12970;SDS011;6550;48.650;8.774;2023-04-03T09:20:13;1.93;;;1.70;;
12970;SDS011;6550;48.650;8.774;2023-04-03T09:22:46;4.87;;;2.00;;
12970;SDS011;6550;48.650;8.774;2023-04-03T09:28:07;16.70;;;2.43;;
12970;SDS011;6550;48.650;8.774;2023-04-03T09:30:38;18.70;;;2.10;;
12970;SDS011;6550;48.650;8.774;2023-04-03T09:33:07;8.50;;;1.73;;
12970;SDS011;6550;48.650;8.774;2023-04-03T09:35:37;10.80;;;2.00;;
12970;SDS011;6550;48.650;8.774;2023-04-03T09:38:15;13.30;;;2.00;;
12970;SDS011;6550;48.650;8.774;2023-04-03T09:40:51;6.23;;;1.77;;
12970;SDS011;6550;48.650;8.774;2023-04-03T09:43:41;4.87;;;1.83;;
12970;SDS011;6550;48.650;8.774;2023-04-03T09:46:25;5.60;;;1.60;;
12970;SDS011;6550;48.650;8.774;2023-04-03T09:49:00;5.27;;;1.50;;
12970;SDS011;6550;48.650;8.774;2023-04-03T09:51:31;3.53;;;1.45;;
12970;SDS011;6550;48.650;8.774;2023-04-03T09:53:58;2.87;;;1.53;;
12970;SDS011;6550;48.650;8.774;2023-04-03T09:56:26;3.97;;;1.63;;
12970;SDS011;6550;48.650;8.774;2023-04-03T10:04:06;4.00;;;1.47;;
12970;SDS011;6550;48.650;8.774;2023-04-03T10:06:34;2.40;;;1.60;;
12970;SDS011;6550;48.650;8.774;2023-04-03T10:09:05;5.67;;;1.40;;
12970;SDS011;6550;48.650;8.774;2023-04-03T10:12:17;1.60;;;1.40;;
12970;SDS011;6550;48.650;8.774;2023-04-03T10:15:00;3.77;;;1.87;;
12970;SDS011;6550;48.650;8.774;2023-04-03T10:17:33;1.70;;;1.60;;
12970;SDS011;6550;48.650;8.774;2023-04-03T10:25:25;1.90;;;1.57;;
12970;SDS011;6550;48.650;8.774;2023-04-03T10:28:00;2.60;;;1.40;;
12970;SDS011;6550;48.650;8.774;2023-04-03T10:30:32;3.63;;;1.40;;
12970;SDS011;6550;48.650;8.774;2023-04-03T10:35:59;2.40;;;1.40;;
12970;SDS011;6550;48.650;8.774;2023-04-03T10:41:07;2.65;;;1.33;;
12970;SDS011;6550;48.650;8.774;2023-04-03T10:47:02;2.03;;;1.40;;
12970;SDS011;6550;48.650;8.774;2023-04-03T10:52:39;1.50;;;1.40;;
12970;SDS011;6550;48.650;8.774;2023-04-03T10:57:46;1.70;;;1.20;;
12970;SDS011;6550;48.650;8.774;2023-04-03T11:00:19;1.93;;;1.33;;
12970;SDS011;6550;48.650;8.774;2023-04-03T11:11:17;1.63;;;1.13;;
12970;SDS011;6550;48.650;8.774;2023-04-03T11:13:52;2.97;;;1.33;;
12970;SDS011;6550;48.650;8.774;2023-04-03T11:16:28;26.03;;;3.10;;
12970;SDS011;6550;48.650;8.774;2023-04-03T11:19:11;17.00;;;2.03;;
12970;SDS011;6550;48.650;8.774;2023-04-03T11:21:40;12.50;;;1.90;;
12970;SDS011;6550;48.650;8.774;2023-04-03T11:24:16;11.07;;;2.03;;
12970;SDS011;6550;48.650;8.774;2023-04-03T11:26:53;18.67;;;2.03;;
12970;SDS011;6550;48.650;8.774;2023-04-03T11:29:23;10.93;;;1.80;;
12970;SDS011;6550;48.650;8.774;2023-04-03T11:34:41;4.87;;;1.47;;
12970;SDS011;6550;48.650;8.774;2023-04-03T11:40:06;2.40;;;1.10;;
12970;SDS011;6550;48.650;8.774;2023-04-03T11:50:51;1.93;;;1.30;;
12970;SDS011;6550;48.650;8.774;2023-04-03T11:53:35;1.87;;;1.20;;
12970;SDS011;6550;48.650;8.774;2023-04-03T12:04:23;2.83;;;1.17;;
12970;SDS011;6550;48.650;8.774;2023-04-03T12:07:02;1.63;;;1.00;;
12970;SDS011;6550;48.650;8.774;2023-04-03T12:15:38;1.83;;;1.17;;
12970;SDS011;6550;48.650;8.774;2023-04-03T12:18:42;2.93;;;1.30;;
12970;SDS011;6550;48.650;8.774;2023-04-03T12:26:25;3.13;;;1.20;;
12970;SDS011;6550;48.650;8.774;2023-04-03T12:29:13;2.50;;;1.27;;
12970;SDS011;6550;48.650;8.774;2023-04-03T12:31:52;1.70;;;1.40;;
12970;SDS011;6550;48.650;8.774;2023-04-03T12:34:38;3.10;;;1.50;;
12970;SDS011;6550;48.650;8.774;2023-04-03T12:39:58;1.37;;;1.20;;
12970;SDS011;6550;48.650;8.774;2023-04-03T12:48:50;5.07;;;1.20;;
12970;SDS011;6550;48.650;8.774;2023-04-03T12:54:13;2.23;;;1.60;;
12970;SDS011;6550;48.650;8.774;2023-04-03T12:56:45;2.70;;;1.40;;
12970;SDS011;6550;48.650;8.774;2023-04-03T13:01:53;1.63;;;1.23;;
12970;SDS011;6550;48.650;8.774;2023-04-03T13:04:21;1.60;;;1.23;;
12970;SDS011;6550;48.650;8.774;2023-04-03T13:06:48;2.63;;;1.70;;
12970;SDS011;6550;48.650;8.774;2023-04-03T13:09:20;5.53;;;1.20;;
12970;SDS011;6550;48.650;8.774;2023-04-03T13:11:58;4.40;;;1.27;;
12970;SDS011;6550;48.650;8.774;2023-04-03T13:14:31;2.37;;;1.30;;
12970;SDS011;6550;48.650;8.774;2023-04-03T13:17:10;3.67;;;1.37;;
12970;SDS011;6550;48.650;8.774;2023-04-03T13:19:44;2.60;;;1.30;;
12970;SDS011;6550;48.650;8.774;2023-04-03T13:24:59;4.32;;;1.40;;
12970;SDS011;6550;48.650;8.774;2023-04-03T13:27:31;3.70;;;1.20;;
12970;SDS011;6550;48.650;8.774;2023-04-03T13:29:59;2.70;;;1.27;;
12970;SDS011;6550;48.650;8.774;2023-04-03T13:32:28;3.80;;;1.30;;
12970;SDS011;6550;48.650;8.774;2023-04-03T13:34:58;2.07;;;1.30;;
12970;SDS011;6550;48.650;8.774;2023-04-03T13:37:52;2.60;;;1.27;;
12970;SDS011;6550;48.650;8.774;2023-04-03T13:40:21;2.03;;;1.13;;
12970;SDS011;6550;48.650;8.774;2023-04-03T13:43:00;2.53;;;1.33;;
12970;SDS011;6550;48.650;8.774;2023-04-03T13:45:32;3.23;;;1.20;;
12970;SDS011;6550;48.650;8.774;2023-04-03T13:48:14;2.63;;;1.30;;
12970;SDS011;6550;48.650;8.774;2023-04-03T13:50:51;2.70;;;1.07;;
12970;SDS011;6550;48.650;8.774;2023-04-03T13:53:27;3.93;;;1.00;;
12970;SDS011;6550;48.650;8.774;2023-04-03T13:58:29;1.33;;;1.03;;
12970;SDS011;6550;48.650;8.774;2023-04-03T14:03:30;0.87;;;0.83;;
12970;SDS011;6550;48.650;8.774;2023-04-03T14:06:05;1.30;;;0.93;;
12970;SDS011;6550;48.650;8.774;2023-04-03T14:08:35;3.35;;;1.10;;
12970;SDS011;6550;48.650;8.774;2023-04-03T14:11:13;1.00;;;0.90;;
12970;SDS011;6550;48.650;8.774;2023-04-03T14:13:46;1.77;;;1.00;;
12970;SDS011;6550;48.650;8.774;2023-04-03T14:16:15;3.07;;;1.10;;
12970;SDS011;6550;48.650;8.774;2023-04-03T14:18:44;3.37;;;1.20;;
12970;SDS011;6550;48.650;8.774;2023-04-03T14:21:13;1.43;;;1.20;;
12970;SDS011;6550;48.650;8.774;2023-04-03T14:23:41;2.87;;;1.30;;
12970;SDS011;6550;48.650;8.774;2023-04-03T14:26:12;3.00;;;1.27;;
12970;SDS011;6550;48.650;8.774;2023-04-03T14:28:50;1.73;;;1.13;;
12970;SDS011;6550;48.650;8.774;2023-04-03T14:31:18;1.30;;;1.20;;
12970;SDS011;6550;48.650;8.774;2023-04-03T14:33:47;2.30;;;1.13;;
12970;SDS011;6550;48.650;8.774;2023-04-03T14:36:20;3.00;;;1.13;;
12970;SDS011;6550;48.650;8.774;2023-04-03T14:38:52;1.57;;;1.10;;
12970;SDS011;6550;48.650;8.774;2023-04-03T14:41:20;3.30;;;1.20;;
12970;SDS011;6550;48.650;8.774;2023-04-03T14:43:52;2.90;;;1.13;;
12970;SDS011;6550;48.650;8.774;2023-04-03T14:46:21;2.07;;;1.17;;
12970;SDS011;6550;48.650;8.774;2023-04-03T14:49:19;2.77;;;1.20;;
12970;SDS011;6550;48.650;8.774;2023-04-03T14:51:49;2.60;;;1.20;;
12970;SDS011;6550;48.650;8.774;2023-04-03T14:54:18;1.27;;;0.97;;
12970;SDS011;6550;48.650;8.774;2023-04-03T14:56:51;3.33;;;1.15;;
12970;SDS011;6550;48.650;8.774;2023-04-03T14:59:19;3.30;;;1.30;;
12970;SDS011;6550;48.650;8.774;2023-04-03T15:01:47;2.07;;;1.10;;
12970;SDS011;6550;48.650;8.774;2023-04-03T15:04:15;3.73;;;1.30;;
12970;SDS011;6550;48.650;8.774;2023-04-03T15:06:45;1.60;;;1.10;;
12970;SDS011;6550;48.650;8.774;2023-04-03T15:09:18;1.20;;;1.10;;
12970;SDS011;6550;48.650;8.774;2023-04-03T15:11:45;3.05;;;1.13;;
12970;SDS011;6550;48.650;8.774;2023-04-03T15:14:13;1.03;;;0.90;;
12970;SDS011;6550;48.650;8.774;2023-04-03T15:16:49;1.53;;;1.10;;
12970;SDS011;6550;48.650;8.774;2023-04-03T15:19:18;2.10;;;1.20;;
12970;SDS011;6550;48.650;8.774;2023-04-03T15:21:47;1.40;;;1.07;;
12970;SDS011;6550;48.650;8.774;2023-04-03T15:24:14;2.23;;;1.20;;
12970;SDS011;6550;48.650;8.774;2023-04-03T15:26:41;3.03;;;1.10;;
12970;SDS011;6550;48.650;8.774;2023-04-03T15:29:09;1.63;;;1.00;;
12970;SDS011;6550;48.650;8.774;2023-04-03T15:31:36;5.63;;;0.97;;
12970;SDS011;6550;48.650;8.774;2023-04-03T15:34:03;3.03;;;1.23;;
12970;SDS011;6550;48.650;8.774;2023-04-03T15:36:30;1.53;;;1.03;;
12970;SDS011;6550;48.650;8.774;2023-04-03T15:39:00;1.40;;;1.10;;
12970;SDS011;6550;48.650;8.774;2023-04-03T15:41:26;4.43;;;0.97;;
12970;SDS011;6550;48.650;8.774;2023-04-03T15:43:53;1.00;;;1.00;;
12970;SDS011;6550;48.650;8.774;2023-04-03T15:46:20;4.30;;;1.30;;
12970;SDS011;6550;48.650;8.774;2023-04-03T15:48:47;8.47;;;1.30;;
12970;SDS011;6550;48.650;8.774;2023-04-03T15:51:15;7.93;;;1.40;;
12970;SDS011;6550;48.650;8.774;2023-04-03T15:53:42;9.60;;;1.73;;
12970;SDS011;6550;48.650;8.774;2023-04-03T15:56:09;7.93;;;1.37;;
12970;SDS011;6550;48.650;8.774;2023-04-03T15:58:38;8.52;;;1.42;;
12970;SDS011;6550;48.650;8.774;2023-04-03T16:01:08;9.10;;;1.40;;
12970;SDS011;6550;48.650;8.774;2023-04-03T16:03:39;13.13;;;1.73;;
12970;SDS011;6550;48.650;8.774;2023-04-03T16:06:12;5.53;;;1.50;;
12970;SDS011;6550;48.650;8.774;2023-04-03T16:08:40;7.17;;;1.67;;
12970;SDS011;6550;48.650;8.774;2023-04-03T16:11:10;5.70;;;1.60;;
12970;SDS011;6550;48.650;8.774;2023-04-03T16:13:44;6.53;;;1.73;;
12970;SDS011;6550;48.650;8.774;2023-04-03T16:16:10;2.33;;;1.43;;
12970;SDS011;6550;48.650;8.774;2023-04-03T16:18:37;3.20;;;1.30;;
12970;SDS011;6550;48.650;8.774;2023-04-03T16:21:05;1.40;;;1.20;;
12970;SDS011;6550;48.650;8.774;2023-04-03T16:23:34;2.33;;;1.27;;
12970;SDS011;6550;48.650;8.774;2023-04-03T16:26:03;2.67;;;1.30;;
12970;SDS011;6550;48.650;8.774;2023-04-03T16:28:34;1.70;;;1.07;;
12970;SDS011;6550;48.650;8.774;2023-04-03T16:31:01;2.60;;;1.30;;
12970;SDS011;6550;48.650;8.774;2023-04-03T16:33:29;1.53;;;1.20;;
12970;SDS011;6550;48.650;8.774;2023-04-03T16:35:56;2.20;;;1.00;;
12970;SDS011;6550;48.650;8.774;2023-04-03T16:38:25;2.63;;;1.57;;
12970;SDS011;6550;48.650;8.774;2023-04-03T16:40:52;2.63;;;1.63;;
12970;SDS011;6550;48.650;8.774;2023-04-03T16:43:22;3.17;;;1.10;;
12970;SDS011;6550;48.650;8.774;2023-04-03T16:45:51;2.17;;;1.60;;
12970;SDS011;6550;48.650;8.774;2023-04-03T16:48:20;1.97;;;1.20;;
12970;SDS011;6550;48.650;8.774;2023-04-03T16:50:49;1.60;;;1.20;;
12970;SDS011;6550;48.650;8.774;2023-04-03T16:53:22;4.40;;;1.30;;
12970;SDS011;6550;48.650;8.774;2023-04-03T16:55:52;3.03;;;1.50;;
12970;SDS011;6550;48.650;8.774;2023-04-03T16:58:20;3.50;;;1.50;;
12970;SDS011;6550;48.650;8.774;2023-04-03T17:00:49;2.97;;;1.60;;
12970;SDS011;6550;48.650;8.774;2023-04-03T17:03:16;1.80;;;1.30;;
12970;SDS011;6550;48.650;8.774;2023-04-03T17:05:46;1.40;;;1.30;;
12970;SDS011;6550;48.650;8.774;2023-04-03T17:08:16;2.33;;;1.50;;